Time;durP1;ratioP1;P1;durP2;ratioP2;P2;SDS_P1;SDS_P2;PMS_P1;PMS_P2;Temp;Humidity;BMP_temperature;BMP_pressure;BME280_temperature;BME280_humidity;BME280_pressure;Samples;Min_cycle;Max_cycle;Signal;HPM_P1;HPM_P2
2022/12/20 00:02:10;;;;;;;;;;;;;;;5.21;66.56;100693.47;5053577;28;19921;-55
2022/12/20 00:04:36;;;;;;;;;;;;;;;5.21;66.56;100693.47;5048837;28;20361;-56
2022/12/20 00:07:01;;;;;;;;;;;;;;;5.14;67.12;100702.97;5033731;28;19975;-53
2022/12/20 00:09:26;;;;;;;;;;;;;;;5.15;67.11;100698.66;5033603;28;20372;-57
2022/12/20 00:11:52;;;;;;;;;;;;;;;5.16;67.38;100706.50;5033393;28;19986;-55
2022/12/20 00:14:17;;;;;;;;;;;;;;;5.25;67.12;100707.41;5033618;28;20272;-55
2022/12/20 00:16:42;;;;;;;;;;;;;;;5.25;66.96;100708.25;5033643;28;20403;-55
2022/12/20 00:19:08;;;;;;;;;;;;;;;5.22;67.28;100709.97;5033143;28;20003;-56
2022/12/20 00:21:34;;;;;;;;;;;;;;;5.12;67.60;100709.06;5051346;28;20280;-56
2022/12/20 00:24:00;;;;;;;;;;;;;;;5.27;67.17;100713.50;5057315;28;19920;-55
2022/12/20 00:26:26;;;;;;;;;;;;;;;5.18;67.56;100706.47;5051946;28;19920;-56
2022/12/20 00:28:52;;;;;;;;;;;;;;;5.22;67.45;100708.25;5057507;28;19916;-55
2022/12/20 00:31:18;;;;;;;;;;;;;;;5.30;67.21;100703.94;5056377;28;20361;-55
2022/12/20 00:33:45;;;;;;;;;;;;;;;5.19;67.95;100701.31;5056959;28;19923;-55
2022/12/20 00:36:10;;;;;;;;;;;;;;;5.14;68.19;100687.34;5047409;28;19921;-56
2022/12/20 00:38:35;;;;;;;;;;;;;;;5.27;67.80;100692.66;5036997;28;19927;-54
2022/12/20 00:41:05;;;;;;;;;;;;;;;5.31;67.78;100684.00;5037007;28;20016;-54
2022/12/20 00:43:31;;;;;;;;;;;;;;;5.20;68.43;100681.31;5035580;28;19924;-55
2022/12/20 00:45:57;;;;;;;;;;;;;;;5.37;67.85;100682.25;5040082;28;20327;-56
2022/12/20 00:48:23;;;;;;;;;;;;;;;5.43;67.64;100676.22;5045728;28;19932;-54
2022/12/20 00:50:48;;;;;;;;;;;;;;;5.30;68.20;100675.28;5040295;28;20388;-55
2022/12/20 00:53:14;;;;;;;;;;;;;;;5.40;67.90;100668.38;5044694;28;19932;-54
2022/12/20 00:55:43;;;;;;;;;;;;;;;5.41;68.02;100667.50;5041535;28;20003;-54
2022/12/20 00:58:09;;;;;;;;;;;;;;;5.25;68.74;100661.38;5052726;28;19951;-52
2022/12/20 01:00:34;;;;;;;;;;;;;;;5.53;67.53;100666.69;5041676;28;19956;-54
2022/12/20 01:02:59;;;;;;;;;;;;;;;5.62;67.03;100659.75;5034969;28;19932;-53
2022/12/20 01:05:25;;;;;;;;;;;;;;;5.55;67.62;100667.59;5047727;28;19928;-57
2022/12/20 01:07:50;;;;;;;;;;;;;;;5.57;67.56;100666.69;5052211;28;19932;-54
2022/12/20 01:10:17;;;;;;;;;;;;;;;5.47;68.22;100659.75;5037991;28;19933;-52
2022/12/20 01:12:42;;;;;;;;;;;;;;;5.47;68.34;100669.28;5056613;28;19921;-54
2022/12/20 01:15:07;;;;;;;;;;;;;;;5.88;66.83;100661.56;5056399;28;19923;-55
2022/12/20 01:17:33;;;;;;;;;;;;;;;5.75;67.17;100665.91;5054665;28;20027;-56
2022/12/20 01:19:59;;;;;;;;;;;;;;;5.66;67.52;100656.31;5055445;28;19968;-55
2022/12/20 01:22:24;;;;;;;;;;;;;;;5.59;68.16;100659.78;5056319;28;19932;-56
2022/12/20 01:24:49;;;;;;;;;;;;;;;5.49;68.85;100652.78;5056104;28;20015;-56
2022/12/20 01:27:15;;;;;;;;;;;;;;;5.62;68.23;100643.25;5054137;28;19932;-58
2022/12/20 01:29:40;;;;;;;;;;;;;;;5.85;67.68;100652.00;5041742;28;20020;-56
2022/12/20 01:32:05;;;;;;;;;;;;;;;6.01;66.94;100647.72;5043744;28;19932;-54
2022/12/20 01:34:30;;;;;;;;;;;;;;;5.75;68.09;100644.19;5046144;28;20372;-57
2022/12/20 01:36:56;;;;;;;;;;;;;;;5.72;68.38;100659.81;5036414;28;19987;-54
2022/12/20 01:39:21;;;;;;;;;;;;;;;5.86;67.83;100668.50;5053379;28;19925;-55
2022/12/20 01:41:47;;;;;;;;;;;;;;;5.84;68.37;100662.44;5037683;28;19979;-54
2022/12/20 01:44:15;;;;;;;;;;;;;;;5.76;68.25;100645.91;5035851;28;20376;-55
2022/12/20 01:46:40;;;;;;;;;;;;;;;5.72;68.58;100644.16;5036041;28;19917;-54
2022/12/20 01:49:12;;;;;;;;;;;;;;;5.66;68.73;100645.91;5048943;28;19927;-54
2022/12/20 01:51:43;;;;;;;;;;;;;;;5.62;69.36;100638.91;5049191;28;19920;-56
2022/12/20 01:54:15;;;;;;;;;;;;;;;5.70;68.79;100623.28;5039458;28;19979;-55
2022/12/20 01:56:42;;;;;;;;;;;;;;;5.80;68.40;100608.53;5035611;28;20059;-56
2022/12/20 01:59:07;;;;;;;;;;;;;;;5.72;68.93;100623.31;5049435;28;20407;-56
2022/12/20 02:01:33;;;;;;;;;;;;;;;5.68;68.94;100612.00;5055425;28;19921;-55
2022/12/20 02:03:58;;;;;;;;;;;;;;;5.73;68.93;100593.75;5054038;28;19924;-55
2022/12/20 02:06:24;;;;;;;;;;;;;;;5.78;68.75;100608.53;5051006;28;19932;-56
2022/12/20 02:08:51;;;;;;;;;;;;;;;5.75;68.89;100607.69;5055191;28;19916;-54
2022/12/20 02:11:35;;;;;;;;;;;;;;;5.95;67.87;100605.13;5041370;28;19921;-56
2022/12/20 02:14:00;;;;;;;;;;;;;;;5.87;68.27;100612.91;5036139;28;19998;-55
2022/12/20 02:16:27;;;;;;;;;;;;;;;5.77;68.76;100613.75;5042902;28;20007;-54
2022/12/20 02:19:00;;;;;;;;;;;;;;;5.91;68.20;100610.28;5036060;28;19964;-53
2022/12/20 02:21:25;;;;;;;;;;;;;;;5.91;68.18;100607.69;5049056;28;20022;-55
2022/12/20 02:23:50;;;;;;;;;;;;;;;5.70;69.21;100597.22;5053113;28;19972;-55
2022/12/20 02:26:19;;;;;;;;;;;;;;;5.85;68.45;100609.41;5052132;28;19921;-56
2022/12/20 02:28:55;;;;;;;;;;;;;;;5.73;69.24;100619.81;5054271;28;19994;-56
2022/12/20 02:31:26;;;;;;;;;;;;;;;5.65;69.28;100631.09;5052197;28;19921;-54
2022/12/20 02:33:54;;;;;;;;;;;;;;;5.64;69.62;100631.97;5040825;28;19987;-56
2022/12/20 02:36:19;;;;;;;;;;;;;;;5.57;69.70;100630.22;5050240;28;20370;-55
2022/12/20 02:38:45;;;;;;;;;;;;;;;5.58;69.94;100623.25;5044064;28;20034;-55
2022/12/20 02:41:14;;;;;;;;;;;;;;;5.48;70.49;100624.97;5035002;28;20004;-55
2022/12/20 02:46:26;;;;;;;;;;;;;;;5.69;69.67;100630.25;5050733;28;19927;-54
2022/12/20 02:48:55;;;;;;;;;;;;;;;5.42;70.28;100631.03;5050553;28;19928;-54
2022/12/20 02:51:22;;;;;;;;;;;;;;;5.68;69.81;100638.06;5049414;28;20333;-55
2022/12/20 02:53:47;;;;;;;;;;;;;;;5.77;69.41;100629.38;5050787;28;19931;-55
2022/12/20 02:56:42;;;;;;;;;;;;;;;5.77;69.30;100621.56;5040079;28;19925;-57
2022/12/20 02:59:10;;;;;;;;;;;;;;;5.73;69.65;100617.22;5045233;28;20018;-55
2022/12/20 03:01:43;;;;;;;;;;;;;;;5.79;68.85;100628.53;5040225;28;19913;-56
2022/12/20 03:04:09;;;;;;;;;;;;;;;5.78;69.48;100612.88;5046767;28;19928;-56
2022/12/20 03:06:34;;;;;;;;;;;;;;;5.86;68.88;100619.81;5054084;28;19917;-56
2022/12/20 03:09:00;;;;;;;;;;;;;;;5.81;69.42;100623.31;5053996;28;19944;-52
2022/12/20 03:11:25;;;;;;;;;;;;;;;5.90;69.02;100603.34;5054574;28;19970;-55
2022/12/20 03:13:50;;;;;;;;;;;;;;;5.83;69.25;100596.38;5042966;28;19947;-55
2022/12/20 03:16:16;;;;;;;;;;;;;;;5.84;69.34;100602.47;5052693;28;20299;-55
2022/12/20 03:18:41;;;;;;;;;;;;;;;5.89;69.02;100598.97;5040394;28;19928;-55
2022/12/20 03:21:06;;;;;;;;;;;;;;;6.08;68.37;100604.25;5035411;28;19925;-55
2022/12/20 03:23:31;;;;;;;;;;;;;;;6.16;67.87;100595.53;5042764;28;19971;-56
2022/12/20 03:25:57;;;;;;;;;;;;;;;6.05;68.49;100596.41;5040589;28;19921;-55
2022/12/20 03:28:22;;;;;;;;;;;;;;;6.50;67.17;100600.72;5036994;28;19933;-54
2022/12/20 03:30:48;;;;;;;;;;;;;;;6.21;67.52;100605.13;5038323;28;20009;-54
2022/12/20 03:33:14;;;;;;;;;;;;;;;5.94;68.84;100596.41;5050492;28;19924;-54
2022/12/20 03:35:39;;;;;;;;;;;;;;;5.91;69.16;100609.44;5050601;28;19928;-60
2022/12/20 03:38:05;;;;;;;;;;;;;;;5.91;69.12;100605.09;5039248;28;19925;-62
2022/12/20 03:40:30;;;;;;;;;;;;;;;5.75;69.72;100608.53;5034709;28;20019;-59
2022/12/20 03:42:55;;;;;;;;;;;;;;;5.87;69.37;100611.16;5035765;28;20029;-63
2022/12/20 03:45:21;;;;;;;;;;;;;;;5.83;69.49;100612.03;5038474;28;19995;-68
2022/12/20 03:47:46;;;;;;;;;;;;;;;5.79;69.48;100612.03;5048767;28;19925;-61
2022/12/20 03:50:11;;;;;;;;;;;;;;;5.81;69.40;100615.50;5048307;28;19936;-61
2022/12/20 03:52:36;;;;;;;;;;;;;;;5.87;69.31;100618.13;5049116;28;19925;-58
2022/12/20 03:55:03;;;;;;;;;;;;;;;5.91;69.24;100627.69;5047993;28;19925;-59
2022/12/20 03:57:28;;;;;;;;;;;;;;;5.74;69.81;100622.41;5044769;28;19920;-59
2022/12/20 03:59:53;;;;;;;;;;;;;;;5.69;70.24;100622.41;5039557;28;20278;-60
2022/12/20 04:02:18;;;;;;;;;;;;;;;5.54;70.60;100624.97;5033908;28;20377;-59
2022/12/20 04:04:44;;;;;;;;;;;;;;;5.78;69.96;100620.69;5037883;28;19972;-60
2022/12/20 04:07:09;;;;;;;;;;;;;;;5.58;70.49;100624.13;5043635;28;19928;-59
2022/12/20 04:09:35;;;;;;;;;;;;;;;5.67;70.15;100621.56;5045857;28;19929;-59
2022/12/20 04:12:00;;;;;;;;;;;;;;;5.79;69.73;100618.09;5055672;28;19917;-61
2022/12/20 04:14:26;;;;;;;;;;;;;;;5.84;69.69;100612.91;5041795;28;19927;-61
2022/12/20 04:16:51;;;;;;;;;;;;;;;5.96;69.22;100604.25;5052346;28;20015;-60
2022/12/20 04:19:16;;;;;;;;;;;;;;;5.91;69.09;100602.47;5037520;28;19938;-59
2022/12/20 04:21:42;;;;;;;;;;;;;;;5.69;70.01;100587.66;5045512;28;20304;-60
2022/12/20 04:24:07;;;;;;;;;;;;;;;5.61;70.42;100576.34;5035482;28;20301;-60
2022/12/20 04:26:32;;;;;;;;;;;;;;;5.86;69.35;100567.66;5034272;28;20285;-59
2022/12/20 04:28:58;;;;;;;;;;;;;;;5.76;69.76;100567.69;5034652;28;19928;-59
2022/12/20 04:31:23;;;;;;;;;;;;;;;5.59;70.38;100578.97;5036276;28;20019;-59
2022/12/20 04:33:48;;;;;;;;;;;;;;;5.71;69.99;100574.66;5034968;28;19980;-59
2022/12/20 04:36:14;;;;;;;;;;;;;;;5.67;70.05;100587.66;5034882;28;19925;-60
2022/12/20 04:38:39;;;;;;;;;;;;;;;5.64;70.43;100584.19;5043690;28;20376;-60
2022/12/20 04:41:05;;;;;;;;;;;;;;;5.66;70.50;100585.94;5037219;28;19929;-60
2022/12/20 04:43:30;;;;;;;;;;;;;;;5.80;69.83;100579.84;5039911;28;20357;-60
2022/12/20 04:45:55;;;;;;;;;;;;;;;5.72;70.11;100582.44;5032082;28;19925;-60
2022/12/20 04:48:22;;;;;;;;;;;;;;;5.74;69.85;100577.22;5041883;28;19924;-59
2022/12/20 04:50:49;;;;;;;;;;;;;;;5.89;69.34;100572.91;5035330;28;19944;-60
2022/12/20 04:55:58;;;;;;;;;;;;;;;5.49;70.74;100574.59;5033563;28;20499;-60
2022/12/20 04:58:24;;;;;;;;;;;;;;;5.82;69.93;100573.75;5034861;28;20059;-60
2022/12/20 05:00:51;;;;;;;;;;;;;;;5.96;69.21;100576.41;5047342;28;19932;-60
2022/12/20 05:03:16;;;;;;;;;;;;;;;5.94;69.03;100567.72;5046528;28;20395;-59
2022/12/20 05:05:41;;;;;;;;;;;;;;;6.06;68.88;100569.44;5047228;28;19929;-60
2022/12/20 05:08:07;;;;;;;;;;;;;;;5.96;68.89;100560.78;5053313;28;19978;-60
2022/12/20 05:10:32;;;;;;;;;;;;;;;5.75;69.84;100559.00;5056753;28;19921;-60
2022/12/20 05:12:57;;;;;;;;;;;;;;;5.81;69.61;100565.94;5055915;28;19916;-60
2022/12/20 05:15:22;;;;;;;;;;;;;;;5.77;69.66;100559.00;5045642;28;20415;-60
2022/12/20 05:17:48;;;;;;;;;;;;;;;5.49;70.67;100564.16;5042546;28;19925;-60
2022/12/20 05:20:13;;;;;;;;;;;;;;;5.51;70.63;100559.84;5036203;28;20356;-59
2022/12/20 05:28:06;;;;;;;;;;;;;;;5.64;70.39;100569.41;5043364;28;20292;-59
2022/12/20 05:30:31;;;;;;;;;;;;;;;5.47;70.80;100562.44;5041647;28;20416;-59
2022/12/20 05:32:57;;;;;;;;;;;;;;;5.52;70.69;100569.38;5035883;28;19983;-59
2022/12/20 05:35:22;;;;;;;;;;;;;;;5.25;71.73;100564.09;5045447;28;19925;-60
2022/12/20 05:37:47;;;;;;;;;;;;;;;5.57;70.47;100562.44;5036473;28;19925;-60
2022/12/20 05:40:12;;;;;;;;;;;;;;;5.56;70.32;100565.06;5039461;28;19921;-60
2022/12/20 05:42:38;;;;;;;;;;;;;;;5.61;70.51;100563.31;5050902;28;19978;-58
2022/12/20 05:45:04;;;;;;;;;;;;;;;5.40;70.80;100565.00;5055123;28;20047;-58
2022/12/20 05:47:32;;;;;;;;;;;;;;;5.60;70.81;100577.22;5045982;28;20288;-59
2022/12/20 05:50:00;;;;;;;;;;;;;;;5.57;70.48;100585.03;5037992;28;20381;-60
2022/12/20 05:52:26;;;;;;;;;;;;;;;5.60;70.20;100574.63;5036024;28;19932;-59
2022/12/20 05:54:51;;;;;;;;;;;;;;;5.76;69.60;100572.91;5035772;28;19921;-59
2022/12/20 05:57:16;;;;;;;;;;;;;;;5.70;69.85;100578.97;5035963;28;19921;-59
2022/12/20 05:59:42;;;;;;;;;;;;;;;5.64;69.96;100581.56;5035485;28;19964;-60
2022/12/20 06:02:09;;;;;;;;;;;;;;;5.80;69.53;100591.16;5049392;28;20269;-59
2022/12/20 06:04:35;;;;;;;;;;;;;;;5.78;69.31;100586.78;5050824;28;20304;-59
2022/12/20 06:07:00;;;;;;;;;;;;;;;5.86;69.22;100585.94;5036960;28;19921;-59
2022/12/20 06:09:25;;;;;;;;;;;;;;;6.05;68.33;100572.94;5038605;28;20296;-59
2022/12/20 06:11:51;;;;;;;;;;;;;;;5.98;68.39;100585.09;5042987;28;19964;-59
2022/12/20 06:14:16;;;;;;;;;;;;;;;5.68;69.45;100585.94;5038190;28;19929;-59
2022/12/20 06:16:41;;;;;;;;;;;;;;;5.76;69.02;100571.16;5039712;28;20032;-60
2022/12/20 06:19:07;;;;;;;;;;;;;;;5.72;69.32;100579.84;5037038;28;20375;-59
2022/12/20 06:21:33;;;;;;;;;;;;;;;5.75;69.36;100584.22;5051608;28;19932;-59
2022/12/20 06:23:58;;;;;;;;;;;;;;;5.54;70.03;100588.50;5045918;28;19921;-60
2022/12/20 06:26:23;;;;;;;;;;;;;;;5.50;70.22;100581.53;5034816;28;19933;-59
2022/12/20 06:28:53;;;;;;;;;;;;;;;5.53;70.19;100591.09;5042352;28;19956;-59
2022/12/20 06:31:18;;;;;;;;;;;;;;;5.69;69.83;100566.78;5053881;28;19923;-59
2022/12/20 06:33:43;;;;;;;;;;;;;;;5.69;69.80;100580.69;5053680;28;19924;-60
2022/12/20 06:36:09;;;;;;;;;;;;;;;5.82;69.21;100572.88;5054344;28;19921;-59
2022/12/20 06:38:34;;;;;;;;;;;;;;;5.83;69.14;100579.88;5041522;28;19921;-59
2022/12/20 06:40:59;;;;;;;;;;;;;;;5.74;69.35;100591.13;5048398;28;20288;-58
2022/12/20 06:43:25;;;;;;;;;;;;;;;5.77;69.25;100593.75;5052140;28;20242;-60
2022/12/20 06:45:50;;;;;;;;;;;;;;;5.88;68.99;100585.94;5039731;28;20300;-59
2022/12/20 06:48:15;;;;;;;;;;;;;;;5.96;68.67;100579.03;5038977;28;20399;-60
2022/12/20 06:50:40;;;;;;;;;;;;;;;5.75;69.28;100576.38;5034808;28;19936;-59
2022/12/20 06:53:06;;;;;;;;;;;;;;;5.86;68.83;100578.09;5045443;28;20322;-59
2022/12/20 06:55:31;;;;;;;;;;;;;;;5.74;69.46;100585.06;5034344;28;19959;-60
2022/12/20 06:57:56;;;;;;;;;;;;;;;5.73;69.54;100594.63;5034828;28;20000;-58
2022/12/20 07:00:22;;;;;;;;;;;;;;;5.82;69.18;100593.75;5045263;28;20335;-59
2022/12/20 07:02:47;;;;;;;;;;;;;;;5.84;68.97;100592.03;5034042;28;19926;-59
2022/12/20 07:05:13;;;;;;;;;;;;;;;6.08;68.38;100591.22;5034120;28;19968;-60
2022/12/20 07:07:38;;;;;;;;;;;;;;;5.82;68.94;100596.34;5034713;28;19921;-60
2022/12/20 07:10:04;;;;;;;;;;;;;;;5.89;69.05;100587.69;5016814;28;20359;-60
2022/12/20 07:12:29;;;;;;;;;;;;;;;5.97;68.79;100585.13;5034072;28;19979;-59
2022/12/20 07:14:54;;;;;;;;;;;;;;;6.05;68.40;100584.25;5032828;28;20479;-60
2022/12/20 07:17:19;;;;;;;;;;;;;;;6.01;68.33;100572.06;5033804;28;20286;-60
2022/12/20 07:19:45;;;;;;;;;;;;;;;5.87;68.91;100589.44;5034162;28;19922;-60
2022/12/20 07:22:10;;;;;;;;;;;;;;;5.91;68.80;100584.22;5034181;28;19940;-59
2022/12/20 07:24:35;;;;;;;;;;;;;;;5.83;69.00;100592.91;5033120;28;19922;-59
2022/12/20 07:27:01;;;;;;;;;;;;;;;5.84;69.08;100590.28;5034210;28;19917;-59
2022/12/20 07:29:26;;;;;;;;;;;;;;;5.75;69.53;100599.84;5033717;28;19921;-60
2022/12/20 07:31:52;;;;;;;;;;;;;;;5.93;68.79;100592.06;5034156;28;19921;-59
2022/12/20 07:34:17;;;;;;;;;;;;;;;5.89;68.65;100596.38;5033763;28;20392;-59
2022/12/20 07:36:43;;;;;;;;;;;;;;;6.14;68.02;100612.06;5033840;28;19917;-59
2022/12/20 07:39:08;;;;;;;;;;;;;;;6.25;67.70;100615.53;5033746;28;19989;-60
2022/12/20 07:41:33;;;;;;;;;;;;;;;6.39;67.17;100618.16;5032525;28;20288;-59
2022/12/20 07:43:59;;;;;;;;;;;;;;;6.29;67.30;100617.28;5033543;28;19971;-58
2022/12/20 07:46:24;;;;;;;;;;;;;;;6.36;67.03;100615.56;5033828;28;20284;-59
2022/12/20 07:48:50;;;;;;;;;;;;;;;6.09;67.76;100611.19;5033725;28;20007;-59
2022/12/20 07:51:17;;;;;;;;;;;;;;;6.33;67.19;100612.94;5032967;28;19990;-60
2022/12/20 07:53:45;;;;;;;;;;;;;;;6.31;67.31;100601.66;5032227;28;19925;-60
2022/12/20 07:56:12;;;;;;;;;;;;;;;6.15;67.76;100612.09;5033385;28;19925;-59
2022/12/20 07:58:39;;;;;;;;;;;;;;;6.04;68.35;100612.94;5033556;28;20289;-59
2022/12/20 08:01:04;;;;;;;;;;;;;;;5.94;68.34;100614.66;5032480;28;19917;-59
2022/12/20 08:03:35;;;;;;;;;;;;;;;6.13;67.95;100605.13;5033685;28;19928;-60
2022/12/20 08:06:02;;;;;;;;;;;;;;;6.45;67.18;100609.44;5033723;28;19917;-58
2022/12/20 08:08:28;;;;;;;;;;;;;;;6.44;66.90;100620.78;5033467;28;19917;-59
2022/12/20 08:10:54;;;;;;;;;;;;;;;6.50;66.76;100611.16;5033491;28;19921;-59
2022/12/20 08:13:19;;;;;;;;;;;;;;;6.29;67.62;100621.63;5033307;28;19921;-59
2022/12/20 08:15:44;;;;;;;;;;;;;;;6.04;68.35;100626.00;5033392;28;19921;-60
2022/12/20 08:18:10;;;;;;;;;;;;;;;6.27;67.69;100626.00;5033453;28;19929;-60
2022/12/20 08:20:35;;;;;;;;;;;;;;;6.22;67.90;100619.91;5033274;28;19921;-60
2022/12/20 08:23:02;;;;;;;;;;;;;;;6.24;67.69;100611.22;5033240;28;19927;-59
2022/12/20 08:25:27;;;;;;;;;;;;;;;6.21;67.63;100610.34;5033249;28;20363;-59
2022/12/20 08:27:52;;;;;;;;;;;;;;;6.20;67.94;100617.28;5033104;28;19956;-60
2022/12/20 08:30:18;;;;;;;;;;;;;;;6.29;67.42;100622.50;5032427;28;19931;-59
2022/12/20 08:32:43;;;;;;;;;;;;;;;6.48;66.86;100623.38;5049951;28;20055;-60
2022/12/20 08:35:08;;;;;;;;;;;;;;;6.31;67.21;100617.31;5051757;28;19959;-59
2022/12/20 08:37:34;;;;;;;;;;;;;;;6.41;67.12;100626.84;5043254;28;20399;-60
2022/12/20 08:39:59;;;;;;;;;;;;;;;6.63;66.13;100625.97;5033152;28;19921;-60
2022/12/20 08:42:25;;;;;;;;;;;;;;;6.63;66.25;100612.03;5035773;28;20284;-60
2022/12/20 08:44:50;;;;;;;;;;;;;;;6.66;66.19;100606.78;5036768;28;19960;-60
2022/12/20 08:47:15;;;;;;;;;;;;;;;6.83;65.70;100619.84;5035928;28;20038;-59
2022/12/20 08:49:41;;;;;;;;;;;;;;;6.58;66.45;100608.53;5037179;28;19943;-59
2022/12/20 08:52:06;;;;;;;;;;;;;;;6.66;66.29;100606.78;5036863;28;20385;-60
2022/12/20 08:54:31;;;;;;;;;;;;;;;6.62;66.05;100610.28;5035658;28;19921;-60
2022/12/20 08:56:57;;;;;;;;;;;;;;;6.54;66.40;100597.28;5036851;28;19931;-61
2022/12/20 08:59:22;;;;;;;;;;;;;;;6.54;66.36;100612.94;5036870;28;19917;-60
2022/12/20 09:01:47;;;;;;;;;;;;;;;6.52;66.36;100617.28;5037108;28;19921;-60
2022/12/20 09:04:14;;;;;;;;;;;;;;;6.76;65.81;100612.88;5036706;28;20269;-59
2022/12/20 09:06:39;;;;;;;;;;;;;;;6.88;65.43;100602.41;5036427;28;19924;-59
2022/12/20 09:09:05;;;;;;;;;;;;;;;6.75;65.64;100611.16;5036553;28;19921;-59
2022/12/20 09:11:31;;;;;;;;;;;;;;;6.55;66.18;100614.66;5036314;28;19960;-61
2022/12/20 09:13:57;;;;;;;;;;;;;;;6.76;65.64;100610.28;5036323;28;19972;-59
2022/12/20 09:16:24;;;;;;;;;;;;;;;6.74;65.51;100604.16;5035720;28;20026;-59
2022/12/20 09:18:50;;;;;;;;;;;;;;;6.52;65.92;100608.56;5036324;28;19917;-59
2022/12/20 09:21:15;;;;;;;;;;;;;;;6.72;65.74;100596.34;5036475;28;19917;-59
2022/12/20 09:23:41;;;;;;;;;;;;;;;6.97;65.12;100591.03;5036162;28;19928;-59
2022/12/20 09:26:09;;;;;;;;;;;;;;;6.98;64.86;100606.72;5035768;28;20019;-59
2022/12/20 09:28:34;;;;;;;;;;;;;;;7.14;64.55;100600.56;5036604;28;19913;-58
2022/12/20 09:31:01;;;;;;;;;;;;;;;7.25;64.24;100597.03;5036646;28;19921;-58
2022/12/20 09:33:27;;;;;;;;;;;;;;;7.16;64.29;100588.34;5036046;28;20016;-58
2022/12/20 09:35:53;;;;;;;;;;;;;;;7.28;64.00;100594.41;5035795;28;19923;-59
2022/12/20 09:38:18;;;;;;;;;;;;;;;7.11;64.50;100613.63;5036055;28;20015;-59
2022/12/20 09:40:45;;;;;;;;;;;;;;;7.22;64.37;100583.97;5034686;28;20380;-59
2022/12/20 09:43:11;;;;;;;;;;;;;;;7.31;63.99;100576.09;5036202;28;19917;-59
2022/12/20 09:45:36;;;;;;;;;;;;;;;7.33;63.84;100577.81;5037335;28;19921;-58
2022/12/20 09:48:04;;;;;;;;;;;;;;;7.25;64.08;100581.34;5044373;28;20038;-59
2022/12/20 09:50:48;;;;;;;;;;;;;;;7.27;64.01;100579.59;5044635;28;19925;-59
2022/12/20 09:53:23;;;;;;;;;;;;;;;7.20;64.24;100583.13;5035358;28;19929;-59
2022/12/20 09:55:53;;;;;;;;;;;;;;;7.02;64.79;100590.16;5035822;28;20381;-58
2022/12/20 09:58:41;;;;;;;;;;;;;;;7.16;64.50;100579.66;5035330;28;20296;-58
2022/12/20 10:01:35;;;;;;;;;;;;;;;7.98;62.62;100573.03;5034318;28;19929;-60
2022/12/20 10:04:05;;;;;;;;;;;;;;;7.68;62.88;100578.50;5030882;28;20000;-59
2022/12/20 10:06:31;;;;;;;;;;;;;;;8.12;61.83;100576.41;5034300;28;19959;-59
2022/12/20 10:09:04;;;;;;;;;;;;;;;8.06;62.07;100579.09;5035669;28;19964;-59
2022/12/20 10:11:35;;;;;;;;;;;;;;;7.79;62.73;100571.44;5035943;28;19979;-59
2022/12/20 10:14:19;;;;;;;;;;;;;;;8.02;62.31;100577.38;5035336;28;19956;-59
2022/12/20 10:16:45;;;;;;;;;;;;;;;8.02;61.87;100569.53;5035576;28;19999;-60
2022/12/20 10:19:14;;;;;;;;;;;;;;;7.90;62.45;100564.38;5035313;28;19925;-59
2022/12/20 10:21:57;;;;;;;;;;;;;;;7.94;62.43;100563.47;5035016;28;20039;-59
2022/12/20 10:24:29;;;;;;;;;;;;;;;8.29;61.11;100551.81;5035066;28;19924;-60
2022/12/20 10:26:54;;;;;;;;;;;;;;;8.37;61.04;100563.13;5035361;28;19921;-58
2022/12/20 10:29:20;;;;;;;;;;;;;;;8.38;61.10;100554.41;5035080;28;19937;-59
2022/12/20 10:31:48;;;;;;;;;;;;;;;8.36;61.38;100566.59;5035370;28;19928;-59
2022/12/20 10:34:14;;;;;;;;;;;;;;;8.53;61.05;100564.69;5034803;28;20024;-58
2022/12/20 10:36:40;;;;;;;;;;;;;;;8.81;60.33;100556.53;5035093;28;19921;-59
2022/12/20 10:39:07;;;;;;;;;;;;;;;8.63;60.96;100555.88;5034994;28;20369;-59
2022/12/20 10:41:47;;;;;;;;;;;;;;;8.42;61.13;100555.22;5035120;28;19963;-59
2022/12/20 10:44:18;;;;;;;;;;;;;;;8.28;61.79;100558.81;5034899;28;20301;-59
2022/12/20 10:46:45;;;;;;;;;;;;;;;8.11;62.11;100561.59;5034882;28;20369;-59
2022/12/20 10:49:19;;;;;;;;;;;;;;;8.05;62.38;100561.63;5034785;28;19917;-59
2022/12/20 10:51:52;;;;;;;;;;;;;;;8.13;62.43;100553.72;5034694;28;19918;-59
2022/12/20 10:54:22;;;;;;;;;;;;;;;8.10;62.50;100544.16;5034629;28;19960;-58
2022/12/20 10:56:58;;;;;;;;;;;;;;;7.89;62.95;100549.53;5033258;28;19925;-60
2022/12/20 10:59:29;;;;;;;;;;;;;;;8.22;62.25;100547.50;5034735;28;19917;-60
2022/12/20 11:01:54;;;;;;;;;;;;;;;8.17;62.20;100544.94;5034395;28;20348;-59
2022/12/20 11:04:19;;;;;;;;;;;;;;;8.22;62.38;100543.19;5033721;28;19972;-60
2022/12/20 11:06:45;;;;;;;;;;;;;;;8.31;62.00;100555.31;5034654;28;20010;-59
2022/12/20 11:09:22;;;;;;;;;;;;;;;8.06;62.47;100541.59;5034464;28;19974;-59
2022/12/20 11:12:10;;;;;;;;;;;;;;;8.09;62.46;100559.84;5034241;28;19918;-59
2022/12/20 11:14:36;;;;;;;;;;;;;;;8.09;62.47;100559.84;5036426;28;19940;-59
2022/12/20 11:17:04;;;;;;;;;;;;;;;8.08;62.78;100555.50;5053241;28;20015;-60
2022/12/20 11:19:37;;;;;;;;;;;;;;;8.04;62.97;100553.78;5053063;28;20289;-60
2022/12/20 11:22:15;;;;;;;;;;;;;;;8.10;62.27;100559.00;5054305;28;19916;-59
2022/12/20 11:24:43;;;;;;;;;;;;;;;7.96;63.00;100553.84;5054108;28;19917;-59
2022/12/20 11:27:22;;;;;;;;;;;;;;;8.01;62.65;100556.44;5054290;28;19921;-59
2022/12/20 11:29:54;;;;;;;;;;;;;;;8.17;62.44;100549.31;5054108;28;19971;-59
2022/12/20 11:32:38;;;;;;;;;;;;;;;8.06;62.71;100541.59;5054010;28;19921;-59
2022/12/20 11:35:12;;;;;;;;;;;;;;;8.08;62.77;100531.94;5053867;28;19923;-60
2022/12/20 11:37:47;;;;;;;;;;;;;;;8.01;62.61;100531.13;5054216;28;19923;-59
2022/12/20 11:40:25;;;;;;;;;;;;;;;8.30;62.17;100523.03;5053755;28;20296;-59
2022/12/20 11:42:57;;;;;;;;;;;;;;;8.18;62.04;100511.78;5053937;28;20009;-59
2022/12/20 11:45:37;;;;;;;;;;;;;;;8.20;62.36;100533.59;5053773;28;19916;-59
2022/12/20 11:48:05;;;;;;;;;;;;;;;8.29;62.10;100533.50;5053629;28;19923;-58
2022/12/20 11:50:51;;;;;;;;;;;;;;;8.39;61.80;100537.81;5053812;28;19939;-58
2022/12/20 11:53:35;;;;;;;;;;;;;;;8.34;61.90;100536.97;5021880;28;19929;-59
2022/12/20 11:56:05;;;;;;;;;;;;;;;8.23;62.34;100533.56;5053544;28;19970;-58
2022/12/20 11:58:36;;;;;;;;;;;;;;;8.39;61.94;100529.94;5052388;28;20379;-59
2022/12/20 12:01:08;;;;;;;;;;;;;;;8.30;62.02;100536.13;5054032;28;19921;-59
2022/12/20 12:03:35;;;;;;;;;;;;;;;8.26;61.97;100530.91;5053699;28;19916;-59
2022/12/20 12:06:03;;;;;;;;;;;;;;;8.31;62.21;100531.75;5053556;28;19924;-58
2022/12/20 12:08:33;;;;;;;;;;;;;;;8.28;62.56;100530.00;5053402;28;20003;-59
2022/12/20 12:11:03;;;;;;;;;;;;;;;8.23;62.26;100523.97;5053884;28;20380;-58
2022/12/20 12:13:34;;;;;;;;;;;;;;;8.42;61.92;100524.69;5053565;28;19917;-58
2022/12/20 12:16:04;;;;;;;;;;;;;;;8.32;62.06;100517.75;5055369;28;19917;-58
2022/12/20 12:18:31;;;;;;;;;;;;;;;8.63;61.49;100515.72;5057885;28;19971;-59
2022/12/20 12:20:56;;;;;;;;;;;;;;;8.69;61.10;100517.38;5056280;28;20397;-60
2022/12/20 12:23:25;;;;;;;;;;;;;;;8.58;61.47;100507.91;5057392;28;19964;-59
2022/12/20 12:25:51;;;;;;;;;;;;;;;8.50;61.67;100512.38;5057486;28;19921;-58
2022/12/20 12:28:18;;;;;;;;;;;;;;;8.68;61.20;100499.94;5056220;28;19921;-59
2022/12/20 12:30:46;;;;;;;;;;;;;;;8.60;61.34;100500.03;5057667;28;20008;-59
2022/12/20 12:33:19;;;;;;;;;;;;;;;8.50;61.63;100511.50;5057430;28;19974;-59
2022/12/20 12:35:52;;;;;;;;;;;;;;;8.62;61.35;100507.00;5057168;28;20288;-58
2022/12/20 12:38:29;;;;;;;;;;;;;;;8.48;61.67;100508.88;5057245;28;19925;-59
2022/12/20 12:40:57;;;;;;;;;;;;;;;8.45;61.99;100502.81;5057477;28;19916;-58
2022/12/20 12:43:41;;;;;;;;;;;;;;;8.35;62.37;100491.56;5057197;28;19917;-59
2022/12/20 12:46:18;;;;;;;;;;;;;;;8.55;62.03;100488.75;5055744;28;19975;-58
2022/12/20 12:49:01;;;;;;;;;;;;;;;8.57;61.96;100493.06;5056996;28;20016;-57
2022/12/20 12:51:34;;;;;;;;;;;;;;;8.36;62.28;100502.00;5057172;28;19924;-61
2022/12/20 12:54:02;;;;;;;;;;;;;;;8.66;61.67;100494.72;5056829;28;19921;-59
2022/12/20 12:56:29;;;;;;;;;;;;;;;8.80;61.32;100494.56;5056500;28;19929;-61
2022/12/20 12:59:08;;;;;;;;;;;;;;;8.83;61.06;100489.28;5057124;28;19921;-59
2022/12/20 13:01:49;;;;;;;;;;;;;;;8.81;61.21;100496.28;5056651;28;19974;-61